Impacts TAF Board
For situational awareness. Not to be used for flight planning purposes.
IDs:

KBHM - Birmingham Intl, AL, US

Issued at 2056 UTC 30 Jun 2022
Updated at 2150 UTC 30 Jun 2022
Potential Impact None Slight Moderate High
Time2053Z 30/22Z 30/23Z 01/00Z 01/01Z 01/02Z 01/03Z 01/04Z 01/05Z 01/06Z 01/07Z 01/08Z 01/09Z 01/10Z>>
Type OBS PRVL
  [TEMP]  
PRVL
  [TEMP]  
PRVL PRVL PRVL PRVL PRVL PRVL PRVL PRVL PRVL PRVL PRVL
VIS 10 >6
  [3]  
>6
  [3]  
>6 >6 >6 >6 >6 >6 >6 >6 >6 >6 >6
CIG 250 --
  [35]  
--
  [35]  
-- -- -- 40 40 40 40 40 40 40 40
Cover BKN SCT
  [BKN]  
SCT
  [BKN]  
SCT SCT SCT BKN BKN BKN BKN BKN BKN BKN BKN
FltCat VFR VFR
  [MVFR]  
VFR
  [MVFR]  
VFR VFR VFR VFR VFR VFR VFR VFR VFR VFR VFR
WX -- VCSH
  [TSRA BR]  
VCSH
  [TSRA BR]  
VCSH VCSH VCSH -- -- -- -- -- -- -- --
WDir 150 160
[VRB]
160
[VRB]
160 160 160 VRB VRB VRB VRB VRB VRB VRB VRB
WSpd 8 7
  [10]  
7
  [10]  
7 7 7 3 3 3 3 3 3 3 3
WGst -- --
  [20]  
--
  [20]  
-- -- -- -- -- -- -- -- -- -- --
WSHgt -- --
[--]
--
[--]
-- -- -- -- -- -- -- -- -- -- --
WSDir -- --
[--]
--
[--]
-- -- -- -- -- -- -- -- -- -- --
WSSpd -- --
[--]
--
[--]
-- -- -- -- -- -- -- -- -- -- --
Raw TAF
KBHM 302056Z 3021/0118 16007KT P6SM VCSH SCT040
  TEMPO 3022/3024 VRB10G20KT 3SM TSRA BR BKN035CB
  FM010300 VRB03KT P6SM BKN040 BKN250
  FM011500 16005KT P6SM FEW035 SCT250


Raw METAR
KBHM 302053Z 15008KT 10SM FEW035 BKN250 30/19 A3013 RMK AO2 LTG DSNT E SLP193 T03000194 56023
KBHM 301953Z 17007KT 10SM FEW034 BKN250 31/21 A3014 RMK AO2 LTG DSNT E SLP197 T03060211
KBHM 301853Z 14007KT 10SM SCT036 SCT043 BKN250 30/21 A3017 RMK AO2 SLP206 T03000206

METAR Board
Radar Display
Forecast Discussion
For situational awareness. Not to be used for flight planning purposes.